Time;durP1;ratioP1;P1;durP2;ratioP2;P2;SDS_P1;SDS_P2;PMS_P1;PMS_P2;Temp;Humidity;BMP_temperature;BMP_pressure;BME280_temperature;BME280_humidity;BME280_pressure;Samples;Min_cycle;Max_cycle;Signal;HPM_P1;HPM_P2
2022/12/29 00:01:32;;;;;;;8.60;4.10;;;1.30;99.90;0.00;96944.00;;;;5029008;28;20466;-88
2022/12/29 00:04:23;;;;;;;6.60;4.73;;;1.00;99.90;-0.40;96929.00;;;;5031758;28;20424;-86
2022/12/29 00:07:12;;;;;;;10.67;2.83;;;0.90;99.90;-0.70;96943.00;;;;5029652;28;20460;-87
2022/12/29 00:10:01;;;;;;;8.40;4.53;;;-1.10;99.90;-0.20;96941.00;;;;5020064;28;20435;-87
2022/12/29 00:15:56;;;;;;;3.17;2.87;;;0.60;99.90;-0.40;96935.00;;;;5023284;28;20436;-88
2022/12/29 00:18:45;;;;;;;4.30;3.53;;;1.50;99.90;-0.80;96923.00;;;;5026234;28;20420;-87
2022/12/29 00:37:07;;;;;;;3.17;2.87;;;0.60;99.90;-0.70;96906.00;;;;5031497;28;20449;-86
2022/12/29 00:46:10;;;;;;;3.63;2.43;;;0.10;99.90;-1.60;96902.00;;;;4999009;28;20447;-86
2022/12/29 00:52:13;;;;;;;3.50;3.20;;;0.50;99.90;-0.60;96904.00;;;;5027817;28;20511;-87
2022/12/29 00:55:02;;;;;;;2.27;2.10;;;-1.30;99.90;-0.50;96903.00;;;;5029991;28;20447;-87
2022/12/29 00:57:51;;;;;;;3.87;3.47;;;-0.10;99.90;-0.30;96910.00;;;;5029538;28;20471;-88
2022/12/29 01:00:40;;;;;;;4.80;2.97;;;0.90;99.90;0.00;96915.00;;;;5030559;28;20802;-88
2022/12/29 01:03:28;;;;;;;5.03;4.53;;;1.20;99.90;-0.10;96912.00;;;;5030584;28;20443;-87
2022/12/29 01:06:17;;;;;;;2.50;1.87;;;0.70;99.90;-1.00;96908.00;;;;5028895;28;20444;-85
2022/12/29 01:12:15;;;;;;;1.97;1.80;;;-0.80;99.90;-1.20;96910.00;;;;5022994;28;20560;-88
2022/12/29 01:15:05;;;;;;;4.93;3.80;;;-0.20;99.90;-1.00;96908.00;;;;5030615;28;20420;-88
2022/12/29 01:17:54;;;;;;;1.93;1.63;;;-1.50;99.90;-0.90;96903.00;;;;5030414;28;20424;-87
2022/12/29 01:20:43;;;;;;;4.60;3.37;;;-0.30;99.90;-0.70;96904.00;;;;5031115;28;20498;-88
2022/12/29 01:23:32;;;;;;;4.43;3.27;;;0.30;99.90;-0.70;96909.00;;;;5030350;28;20420;-89
2022/12/29 01:26:22;;;;;;;2.20;2.10;;;0.50;99.90;-1.10;96913.00;;;;5030791;28;20468;-86
2022/12/29 01:29:11;;;;;;;3.37;3.00;;;-1.50;99.90;-1.40;96913.00;;;;5018575;28;21008;-87
2022/12/29 01:32:00;;;;;;;3.13;2.90;;;-1.50;99.90;-0.90;96912.00;;;;5026383;28;20943;-89
2022/12/29 01:34:49;;;;;;;7.07;3.03;;;-1.60;99.90;-0.90;96903.00;;;;5031177;28;20416;-85
2022/12/29 01:37:37;;;;;;;3.53;2.50;;;0.00;99.90;-1.50;96892.00;;;;5019983;28;20436;-86
2022/12/29 01:40:26;;;;;;;3.00;2.80;;;-0.30;99.90;-1.10;96904.00;;;;5011527;28;20429;-87
2022/12/29 01:43:16;;;;;;;3.07;2.77;;;-0.60;99.90;-1.10;96902.00;;;;5026843;28;20498;-84
2022/12/29 01:46:06;;;;;;;2.60;2.00;;;-0.70;99.90;-1.50;96893.00;;;;5030730;28;20441;-86
2022/12/29 01:49:00;;;;;;;4.10;1.03;;;-1.60;99.90;-1.30;96903.00;;;;5030569;28;20472;-85
2022/12/29 01:51:55;;;;;;;2.37;2.17;;;-1.60;99.90;-1.30;96892.00;;;;5025742;28;20808;-88
2022/12/29 01:54:49;;;;;;;3.63;2.37;;;-1.50;99.90;-1.00;96892.00;;;;5025077;28;20440;-88
2022/12/29 01:57:43;;;;;;;2.70;2.50;;;-0.10;99.90;-0.50;96881.00;;;;5028788;28;20950;-89
2022/12/29 02:00:33;;;;;;;3.57;3.17;;;-0.30;99.90;-0.50;96895.00;;;;5031233;28;20483;-88
2022/12/29 02:03:26;;;;;;;1.60;1.50;;;-2.30;99.90;-1.30;96882.00;;;;5030439;28;20790;-89
2022/12/29 02:06:21;;;;;;;2.80;2.37;;;-0.90;99.90;-1.60;96885.00;;;;5028255;28;20446;-89
2022/12/29 02:09:09;;;;;;;3.40;3.10;;;1.00;99.90;-1.20;96885.00;;;;5029939;28;20464;-87
2022/12/29 02:11:59;;;;;;;1.13;1.13;;;0.10;99.90;-1.40;96882.00;;;;5028498;28;20515;-86
2022/12/29 02:14:51;;;;;;;3.30;2.00;;;-1.60;99.90;-1.20;96876.00;;;;5022923;28;20428;-88
2022/12/29 02:18:09;;;;;;;2.00;1.73;;;-0.40;99.90;-0.90;96867.00;;;;5028687;28;20421;-88
2022/12/29 02:21:46;;;;;;;5.43;3.20;;;-1.60;99.90;-0.70;96869.00;;;;5028452;28;20534;-88
2022/12/29 02:25:35;;;;;;;2.23;1.60;;;-1.50;99.90;-1.20;96859.00;;;;5035048;28;20493;-88
2022/12/29 02:29:00;;;;;;;2.37;1.87;;;-0.30;99.90;-0.80;96872.00;;;;4969894;28;20860;-91
2022/12/29 02:31:58;;;;;;;2.97;2.47;;;-1.50;99.90;-0.50;96874.00;;;;5042415;28;20462;-89
2022/12/29 02:34:54;;;;;;;3.37;2.83;;;0.80;99.90;-0.60;96874.00;;;;5034587;28;20456;-88
2022/12/29 02:37:52;;;;;;;5.20;2.85;;;0.20;99.90;-0.70;96863.00;;;;5023775;28;20613;-90
2022/12/29 02:40:47;;;;;;;3.03;2.33;;;-1.40;99.90;-0.50;96875.00;;;;5021252;28;20451;-89
2022/12/29 02:43:42;;;;;;;3.87;2.70;;;-0.10;99.90;-0.70;96871.00;;;;5028669;28;20863;-88
2022/12/29 02:46:38;;;;;;;2.10;1.97;;;-1.00;99.90;-1.00;96858.00;;;;5031903;28;20838;-86
2022/12/29 02:49:35;;;;;;;3.20;2.83;;;0.00;99.90;-1.10;96856.00;;;;5028890;28;20554;-89
2022/12/29 02:52:31;;;;;;;2.93;1.83;;;1.20;99.90;-1.40;96870.00;;;;5036232;28;20474;-86
2022/12/29 02:55:20;;;;;;;2.93;2.70;;;-1.30;99.90;-1.30;96861.00;;;;5027607;28;20445;-88
2022/12/29 02:58:21;;;;;;;0.90;0.90;;;-1.70;99.90;-1.60;96854.00;;;;5031457;28;20842;-87
2022/12/29 03:01:26;;;;;;;1.77;1.57;;;-1.20;99.90;-1.80;96858.00;;;;5035321;28;20440;-88
2022/12/29 03:04:30;;;;;;;2.30;2.10;;;-0.20;99.90;-1.80;96848.00;;;;5033288;28;20424;-86
2022/12/29 03:07:25;;;;;;;1.63;1.20;;;-2.00;99.90;-1.80;96863.00;;;;5038523;28;21020;-85
2022/12/29 03:10:30;;;;;;;1.50;1.50;;;-1.60;99.90;-1.90;96853.00;;;;5022633;28;20451;-85
2022/12/29 03:16:44;;;;;;;8.20;2.37;;;-2.00;99.90;-1.20;96846.00;;;;5033499;28;20525;-89
2022/12/29 03:19:38;;;;;;;2.90;2.10;;;-1.80;99.90;-0.80;96850.00;;;;5033426;28;20436;-88
2022/12/29 03:22:32;;;;;;;2.37;2.17;;;0.90;99.90;-1.10;96843.00;;;;5033569;28;20441;-89
2022/12/29 03:25:27;;;;;;;2.73;2.03;;;-1.00;99.90;-1.60;96849.00;;;;5033067;28;20444;-87
2022/12/29 03:28:23;;;;;;;2.17;2.07;;;-0.30;99.90;-1.60;96847.00;;;;5032172;28;20475;-87
2022/12/29 03:31:12;;;;;;;2.13;1.80;;;-1.90;99.90;-1.40;96849.00;;;;5022798;28;20439;-87
2022/12/29 03:34:01;;;;;;;2.27;2.17;;;-1.50;99.90;-1.30;96852.00;;;;5032909;28;20429;-90
2022/12/29 03:36:58;;;;;;;5.63;2.50;;;-1.80;99.90;-1.00;96857.00;;;;5033045;28;20449;-88
2022/12/29 03:39:47;;;;;;;2.70;1.73;;;0.20;99.90;-0.80;96855.00;;;;5031686;28;20443;-87
2022/12/29 03:42:37;;;;;;;1.93;1.70;;;-1.10;99.90;-1.10;96839.00;;;;5032087;28;20460;-89
2022/12/29 03:45:26;;;;;;;1.70;0.90;;;-1.70;99.90;-1.40;96844.00;;;;5033181;28;20447;-86
2022/12/29 03:48:15;;;;;;;1.60;1.50;;;-1.80;99.90;-1.40;96849.00;;;;5033097;28;20905;-88
2022/12/29 03:51:04;;;;;;;2.17;1.80;;;-1.80;99.90;-0.80;96857.00;;;;5040191;28;20443;-87
2022/12/29 03:53:54;;;;;;;2.63;1.53;;;-1.70;99.90;-0.60;96864.00;;;;5030876;28;20432;-87
2022/12/29 03:56:43;;;;;;;2.60;2.37;;;0.00;99.90;-0.40;96859.00;;;;5034558;28;20459;-88
2022/12/29 03:59:31;;;;;;;3.00;2.80;;;0.60;99.90;-0.60;96860.00;;;;5032446;28;20541;-87
2022/12/29 04:02:20;;;;;;;2.60;2.40;;;0.10;99.90;-1.00;96854.00;;;;5032245;28;20428;-88
2022/12/29 04:05:09;;;;;;;2.87;2.53;;;0.00;99.90;-1.20;96849.00;;;;5025197;28;20819;-89
2022/12/29 04:07:58;;;;;;;2.83;2.63;;;0.10;99.90;-0.80;96851.00;;;;5031540;28;20428;-89
2022/12/29 04:10:49;;;;;;;2.47;2.27;;;-1.30;99.90;-1.00;96852.00;;;;5033294;28;20432;-87
2022/12/29 04:13:40;;;;;;;1.93;1.73;;;-0.20;99.90;-1.30;96841.00;;;;5033016;28;20432;-88
2022/12/29 04:16:29;;;;;;;0.67;0.67;;;-1.00;99.90;-1.70;96845.00;;;;5025875;28;20472;-85
2022/12/29 04:19:18;;;;;;;1.50;1.40;;;-1.80;99.90;-1.80;96841.00;;;;5028749;28;20478;-87
2022/12/29 04:22:07;;;;;;;1.83;1.73;;;-0.80;99.90;-2.10;96833.00;;;;5024809;28;20815;-89
2022/12/29 04:24:55;;;;;;;1.43;1.33;;;-1.00;99.90;-1.80;96851.00;;;;5041920;28;20950;-88
2022/12/29 04:27:46;;;;;;;6.53;1.47;;;-2.00;99.90;-1.80;96846.00;;;;5027998;28;20433;-87
2022/12/29 04:30:34;;;;;;;2.47;2.27;;;-0.70;99.90;-1.40;96842.00;;;;5030188;28;21266;-88
2022/12/29 04:33:24;;;;;;;2.40;2.20;;;-2.00;99.90;-1.00;96846.00;;;;5031224;28;20432;-89
2022/12/29 04:36:12;;;;;;;1.10;1.10;;;-1.70;99.90;-1.10;96859.00;;;;5021125;28;20440;-86
2022/12/29 04:39:01;;;;;;;2.53;2.33;;;-1.80;99.90;-1.40;96848.00;;;;5031663;28;20436;-88
2022/12/29 04:41:50;;;;;;;1.77;1.67;;;-0.50;99.90;-2.00;96840.00;;;;5031561;28;20490;-88
2022/12/29 04:44:40;;;;;;;2.43;1.40;;;-2.00;99.90;-2.10;96837.00;;;;5033092;28;21250;-84
2022/12/29 04:47:32;;;;;;;2.57;1.67;;;-2.10;99.90;-1.80;96832.00;;;;5032380;28;20428;-87
2022/12/29 04:50:21;;;;;;;2.20;2.00;;;-2.10;99.90;-1.40;96846.00;;;;5031991;28;20538;-88
2022/12/29 04:53:10;;;;;;;2.03;1.80;;;-2.10;99.90;-1.40;96840.00;;;;5029215;28;20412;-88
2022/12/29 04:55:59;;;;;;;1.40;1.20;;;0.70;99.90;-1.40;96848.00;;;;5032568;28;20452;-86
2022/12/29 04:58:48;;;;;;;5.20;2.10;;;1.00;99.90;-1.00;96843.00;;;;5028263;28;20412;-88
2022/12/29 05:01:38;;;;;;;1.53;1.40;;;-1.90;99.90;-1.10;96841.00;;;;5025731;28;20482;-87
2022/12/29 05:04:27;;;;;;;1.73;1.63;;;0.40;99.90;-0.90;96841.00;;;;5020650;28;20954;-87
2022/12/29 05:07:16;;;;;;;2.43;2.23;;;-1.50;99.90;-0.70;96844.00;;;;5031127;28;20502;-88
2022/12/29 05:10:06;;;;;;;3.27;2.57;;;-0.70;99.90;-1.40;96841.00;;;;5020526;28;20486;-87
2022/12/29 05:12:55;;;;;;;2.37;2.17;;;-1.50;99.90;-1.60;96841.00;;;;5024773;28;20965;-87
2022/12/29 05:15:49;;;;;;;2.33;2.13;;;-1.20;99.90;-1.80;96843.00;;;;5024522;28;20496;-88
2022/12/29 05:18:39;;;;;;;3.40;2.60;;;-1.70;99.90;-2.20;96848.00;;;;5032060;28;20432;-87
2022/12/29 05:21:28;;;;;;;2.73;2.13;;;0.80;99.90;-2.00;96859.00;;;;5029872;28;20424;-88
2022/12/29 05:24:17;;;;;;;0.67;0.63;;;-0.80;99.90;-1.80;96863.00;;;;5031720;28;20421;-87
2022/12/29 05:27:06;;;;;;;1.53;1.43;;;-0.70;99.90;-1.40;96871.00;;;;5031038;28;20456;-88
2022/12/29 05:29:55;;;;;;;2.47;2.07;;;-1.50;99.90;-1.40;96868.00;;;;5031752;28;20464;-88
2022/12/29 05:32:44;;;;;;;4.87;3.33;;;-0.30;99.90;-1.60;96868.00;;;;5031557;28;20424;-87
2022/12/29 05:35:34;;;;;;;2.77;2.30;;;-1.10;99.90;-1.50;96871.00;;;;5029681;28;20872;-87
2022/12/29 05:38:23;;;;;;;1.87;1.70;;;-2.00;99.90;-1.60;96871.00;;;;5030341;28;20424;-87
2022/12/29 05:41:12;;;;;;;3.00;2.70;;;-2.00;99.90;-1.40;96867.00;;;;5031324;28;20456;-87
2022/12/29 05:44:01;;;;;;;2.83;2.63;;;-1.50;99.90;-1.10;96873.00;;;;5030540;28;20455;-87
2022/12/29 05:46:50;;;;;;;2.83;2.63;;;-1.80;99.90;-1.00;96876.00;;;;5031741;28;20455;-87
2022/12/29 05:49:38;;;;;;;1.50;1.40;;;-0.40;99.90;-0.70;96880.00;;;;5031211;28;20496;-88
2022/12/29 05:52:29;;;;;;;5.73;3.07;;;-1.60;99.90;-0.80;96877.00;;;;5029447;28;20463;-89
2022/12/29 05:55:18;;;;;;;2.67;2.47;;;-0.50;99.90;-1.00;96894.00;;;;5030779;28;21026;-87
2022/12/29 05:58:06;;;;;;;5.10;2.80;;;-1.50;99.90;-1.30;96886.00;;;;5030063;28;20440;-87
2022/12/29 06:00:55;;;;;;;2.13;2.00;;;-1.70;99.90;-1.30;96891.00;;;;5017393;28;20433;-88
2022/12/29 06:03:44;;;;;;;5.23;2.40;;;-1.80;99.90;-1.10;96880.00;;;;5019888;28;20436;-87
2022/12/29 06:06:35;;;;;;;4.83;3.47;;;-1.80;99.90;-1.40;96880.00;;;;5028862;28;20494;-87
2022/12/29 06:09:25;;;;;;;1.33;1.33;;;-1.20;99.90;-1.80;96885.00;;;;5029541;28;20810;-85
2022/12/29 06:12:14;;;;;;;1.63;1.53;;;-1.70;99.90;-1.80;96885.00;;;;5023950;28;20452;-84
2022/12/29 06:15:03;;;;;;;3.23;2.23;;;-2.10;99.90;-1.50;96883.00;;;;5019455;28;20482;-87
2022/12/29 06:17:52;;;;;;;0.60;0.60;;;-2.00;99.90;-1.30;96880.00;;;;5025042;28;20448;-87
2022/12/29 06:20:41;;;;;;;2.57;2.37;;;-1.90;99.90;-0.90;96882.00;;;;5030471;28;20432;-87
2022/12/29 06:23:29;;;;;;;8.37;3.77;;;-1.70;99.90;-0.60;96889.00;;;;5032926;28;20553;-87
2022/12/29 06:26:20;;;;;;;5.07;3.77;;;-0.40;99.90;-0.50;96897.00;;;;5032915;28;20468;-87
2022/12/29 06:29:09;;;;;;;5.87;3.93;;;0.20;99.90;-0.50;96888.00;;;;5027810;28;20935;-88
2022/12/29 06:31:58;;;;;;;6.90;2.87;;;0.40;99.90;-1.20;96905.00;;;;5031224;28;20458;-88
2022/12/29 06:34:47;;;;;;;3.60;3.27;;;0.50;99.90;-1.60;96904.00;;;;5027779;28;20433;-86
2022/12/29 06:37:36;;;;;;;3.33;2.33;;;-1.60;99.90;-2.10;96902.00;;;;5021020;28;20479;-87
2022/12/29 06:40:25;;;;;;;3.10;2.43;;;-1.90;99.90;-1.80;96913.00;;;;5026692;28;20459;-85
2022/12/29 06:43:15;;;;;;;1.30;1.30;;;-0.50;99.90;-1.80;96916.00;;;;5030048;28;20424;-86
2022/12/29 06:46:04;;;;;;;4.73;2.67;;;-0.70;99.90;-1.60;96903.00;;;;5030788;28;20444;-86
2022/12/29 06:48:53;;;;;;;2.37;2.27;;;-2.00;99.90;-1.50;96918.00;;;;5029884;28;20513;-87
2022/12/29 06:51:41;;;;;;;2.70;2.33;;;-0.90;99.90;-1.60;96912.00;;;;5035472;28;20464;-88
2022/12/29 06:54:30;;;;;;;3.80;3.20;;;-1.00;99.90;-1.40;96912.00;;;;5030832;28;21162;-86
2022/12/29 06:57:19;;;;;;;6.17;5.60;;;-1.90;99.90;-1.30;96912.00;;;;5015456;28;20440;-87
2022/12/29 07:00:11;;;;;;;2.90;2.63;;;-0.60;99.90;-1.00;96918.00;;;;5022677;28;20974;-87
2022/12/29 07:03:00;;;;;;;5.03;4.13;;;-1.80;99.90;-1.30;96922.00;;;;5033445;28;20431;-88
2022/12/29 07:05:49;;;;;;;4.27;3.13;;;-0.70;99.90;-1.30;96921.00;;;;5031563;28;20444;-89
2022/12/29 07:08:38;;;;;;;3.20;2.33;;;-0.80;99.90;-0.90;96919.00;;;;5026431;28;20427;-88
2022/12/29 07:11:27;;;;;;;7.60;2.90;;;-0.30;99.90;-0.30;96917.00;;;;5020484;28;20471;-88
2022/12/29 07:14:15;;;;;;;3.37;2.70;;;0.10;99.90;-0.50;96923.00;;;;5033858;28;20428;-88
2022/12/29 07:17:06;;;;;;;5.27;2.17;;;-1.40;99.90;-0.80;96917.00;;;;5032493;28;20482;-87
2022/12/29 07:19:55;;;;;;;2.17;2.03;;;0.00;99.90;-0.70;96910.00;;;;5032956;28;20432;-88
2022/12/29 07:22:44;;;;;;;2.47;2.27;;;1.00;99.90;-1.40;96903.00;;;;5038393;28;20464;-87
2022/12/29 07:25:34;;;;;;;1.87;1.47;;;-1.40;99.90;-1.30;96910.00;;;;5028571;28;20441;-88
2022/12/29 07:28:23;;;;;;;2.33;2.13;;;1.30;99.90;-0.60;96914.00;;;;5032033;28;20511;-88
2022/12/29 07:31:16;;;;;;;1.47;1.03;;;-0.50;99.90;-0.70;96925.00;;;;5034574;28;20466;-86
2022/12/29 07:34:06;;;;;;;9.07;7.00;;;-1.40;99.90;-0.90;96927.00;;;;5030003;28;20835;-88
2022/12/29 07:36:55;;;;;;;6.77;5.60;;;0.70;99.90;-0.70;96922.00;;;;5039941;28;20447;-87
2022/12/29 07:39:44;;;;;;;4.13;2.73;;;-1.40;99.90;-0.70;96915.00;;;;5030930;28;20429;-88
2022/12/29 07:42:33;;;;;;;3.70;3.37;;;0.00;99.90;-0.70;96930.00;;;;5044711;28;20435;-87
2022/12/29 07:45:21;;;;;;;1.40;1.30;;;1.30;99.90;-0.60;96918.00;;;;5047242;28;20501;-89
2022/12/29 07:48:10;;;;;;;6.07;2.87;;;-1.20;99.90;-0.40;96935.00;;;;5034439;28;20408;-88
2022/12/29 07:51:00;;;;;;;3.17;2.87;;;0.10;99.90;-0.40;96930.00;;;;5044792;28;20460;-88
2022/12/29 07:53:49;;;;;;;6.63;4.37;;;0.80;99.90;-0.70;96931.00;;;;5042894;28;20427;-87
2022/12/29 07:56:38;;;;;;;2.80;2.33;;;1.20;99.90;-0.60;96932.00;;;;5035529;28;20459;-89
2022/12/29 07:59:27;;;;;;;2.23;2.13;;;0.80;99.90;-0.70;96927.00;;;;5035206;28;20435;-88
2022/12/29 08:02:16;;;;;;;2.83;2.50;;;1.20;99.90;-0.90;96931.00;;;;5026818;28;20444;-87
2022/12/29 08:05:06;;;;;;;3.93;3.40;;;-0.60;99.90;-0.70;96931.00;;;;5028934;28;20439;-89
2022/12/29 08:07:56;;;;;;;2.67;2.47;;;-1.20;99.90;-0.80;96920.00;;;;5025703;28;20459;-88
2022/12/29 08:10:45;;;;;;;5.20;3.47;;;0.20;99.90;-0.80;96923.00;;;;5022168;28;20468;-86
2022/12/29 08:13:34;;;;;;;2.37;2.17;;;-1.20;99.90;-1.30;96916.00;;;;5024790;28;20436;-85
2022/12/29 08:16:22;;;;;;;2.50;2.30;;;-1.30;99.90;-1.00;96926.00;;;;5029672;28;20452;-88
2022/12/29 08:19:12;;;;;;;3.60;3.30;;;-1.30;99.90;-1.00;96917.00;;;;5024539;28;20860;-87
2022/12/29 08:22:01;;;;;;;2.23;2.10;;;-1.30;99.90;-0.60;96921.00;;;;5026299;28;20421;-90
2022/12/29 08:24:51;;;;;;;2.17;2.00;;;-1.20;99.90;-0.70;96916.00;;;;5027818;28;20445;-86
2022/12/29 08:27:40;;;;;;;2.90;2.63;;;-1.10;99.90;-0.30;96927.00;;;;5032349;28;20445;-87
2022/12/29 08:30:29;;;;;;;8.37;4.57;;;-1.00;99.90;0.00;96928.00;;;;5032961;28;20439;-87
2022/12/29 08:33:17;;;;;;;3.23;2.93;;;-0.90;99.90;-0.10;96927.00;;;;5033155;28;20431;-88
2022/12/29 08:36:09;;;;;;;4.93;3.03;;;-0.70;99.90;-0.40;96925.00;;;;5026131;28;20968;-85
2022/12/29 08:38:58;;;;;;;3.33;3.03;;;-0.80;99.90;-0.10;96933.00;;;;5026363;28;20423;-89
2022/12/29 08:41:48;;;;;;;2.77;2.57;;;-0.80;99.90;0.00;96940.00;;;;5022531;28;20429;-88
2022/12/29 08:44:37;;;;;;;5.47;3.07;;;1.50;99.90;0.30;96935.00;;;;5025677;28;20431;-87
2022/12/29 08:47:26;;;;;;;1.00;0.97;;;-0.60;99.90;-0.30;96922.00;;;;5020509;28;20416;-87
2022/12/29 08:50:14;;;;;;;2.80;1.63;;;0.80;99.90;-0.20;96916.00;;;;5018167;28;20947;-86
2022/12/29 08:53:03;;;;;;;2.47;2.27;;;-0.60;99.90;0.20;96924.00;;;;5032245;28;20429;-87
2022/12/29 08:55:59;;;;;;;2.30;2.17;;;0.80;99.90;0.30;96930.00;;;;5026125;28;20463;-85
2022/12/29 08:58:53;;;;;;;3.53;3.00;;;0.60;99.90;0.30;96934.00;;;;5024036;28;20829;-89
2022/12/29 09:01:42;;;;;;;3.57;3.13;;;-0.20;99.90;0.50;96923.00;;;;5024819;28;20467;-88
2022/12/29 09:04:31;;;;;;;3.43;3.13;;;-0.10;99.90;0.40;96924.00;;;;5029820;28;20431;-85
2022/12/29 09:07:20;;;;;;;3.70;3.17;;;0.60;99.90;0.30;96923.00;;;;5028486;28;20962;-89
2022/12/29 09:10:09;;;;;;;5.43;3.40;;;-0.10;99.90;0.60;96928.00;;;;5025682;28;20927;-86
2022/12/29 09:12:58;;;;;;;4.40;3.80;;;0.10;99.90;0.70;96938.00;;;;5031048;28;20474;-87
2022/12/29 09:15:48;;;;;;;5.07;3.83;;;0.20;99.90;1.00;96936.00;;;;5030805;28;20565;-87
2022/12/29 09:18:38;;;;;;;6.20;4.47;;;0.40;99.90;1.90;96949.00;;;;5026852;28;20800;-87
2022/12/29 09:21:27;;;;;;;6.87;2.67;;;0.70;99.90;2.30;96950.00;;;;5030816;28;20424;-87
2022/12/29 09:24:15;;;;;;;6.07;5.37;;;0.90;99.90;2.60;96946.00;;;;5021223;28;20423;-87
2022/12/29 09:27:04;;;;;;;11.33;5.27;;;1.20;99.90;2.80;96955.00;;;;5014751;28;20456;-90
2022/12/29 09:29:53;;;;;;;10.10;6.70;;;1.50;99.90;2.90;96946.00;;;;5020023;28;20424;-88
2022/12/29 09:32:44;;;;;;;8.37;4.27;;;1.60;99.90;2.70;96944.00;;;;5027834;28;20813;-87
2022/12/29 09:35:34;;;;;;;3.90;3.60;;;1.80;99.90;2.90;96929.00;;;;5026396;28;20449;-88
2022/12/29 09:38:25;;;;;;;6.07;4.43;;;1.90;99.90;3.30;96936.00;;;;5031419;28;20436;-87
2022/12/29 09:41:21;;;;;;;5.17;4.67;;;2.00;99.90;2.70;96925.00;;;;5031518;28;20416;-88
2022/12/29 09:44:18;;;;;;;16.17;4.57;;;2.10;99.90;2.30;96920.00;;;;5028315;28;20458;-87
2022/12/29 09:47:12;;;;;;;6.20;4.30;;;2.00;99.90;2.30;96910.00;;;;5030040;28;20454;-87
2022/12/29 09:50:09;;;;;;;10.27;3.60;;;1.80;99.90;2.80;96916.00;;;;5029424;28;20434;-89
2022/12/29 09:53:06;;;;;;;7.43;4.30;;;1.80;99.90;2.90;96915.00;;;;5032932;28;20464;-88
2022/12/29 09:55:59;;;;;;;4.37;3.53;;;1.90;99.90;3.20;96913.00;;;;5025026;28;20826;-89
2022/12/29 09:58:55;;;;;;;6.73;5.50;;;2.10;99.90;3.80;96917.00;;;;5031616;28;20438;-88
2022/12/29 10:01:52;;;;;;;6.37;4.80;;;2.30;99.90;3.70;96903.00;;;;5030670;28;20454;-89
2022/12/29 10:04:42;;;;;;;7.67;3.60;;;2.50;99.90;3.80;96910.00;;;;5030036;28;20449;-86
2022/12/29 10:07:46;;;;;;;7.70;4.27;;;2.70;99.90;4.30;96907.00;;;;5034194;28;20423;-91
2022/12/29 10:10:41;;;;;;;7.90;3.87;;;2.90;99.90;4.90;96900.00;;;;5024875;28;20459;-88
2022/12/29 10:13:46;;;;;;;7.10;3.63;;;3.20;99.90;5.00;96905.00;;;;5035911;28;20473;-89
2022/12/29 10:16:46;;;;;;;4.83;3.63;;;3.50;99.90;4.90;96902.00;;;;5026711;28;20452;-90
2022/12/29 10:20:03;;;;;;;8.30;4.47;;;3.70;99.90;5.10;96913.00;;;;5038334;28;20435;-88
2022/12/29 10:23:24;;;;;;;5.40;3.73;;;3.80;99.90;5.30;96896.00;;;;5032995;28;20418;-91
2022/12/29 10:26:18;;;;;;;8.93;3.90;;;4.00;99.90;5.90;96911.00;;;;5033709;28;20993;-88
2022/12/29 10:29:17;;;;;;;9.13;5.28;;;4.70;99.90;6.30;96898.00;;;;5039051;28;20381;-88
2022/12/29 10:32:21;;;;;;;5.93;4.77;;;5.60;99.90;6.40;96893.00;;;;5027174;28;20680;-87
2022/12/29 10:35:15;;;;;;;5.70;3.73;;;6.40;99.90;7.00;96893.00;;;;5040961;28;20221;-88
2022/12/29 10:38:16;;;;;;;7.13;4.50;;;6.90;99.90;7.40;96890.00;;;;5038081;28;20211;-90
2022/12/29 10:41:15;;;;;;;5.90;4.03;;;7.30;99.90;8.10;96890.00;;;;5043408;28;20311;-87
2022/12/29 10:44:04;;;;;;;9.93;4.53;;;7.90;99.90;8.40;96898.00;;;;5051566;28;20201;-87
2022/12/29 10:47:00;;;;;;;6.10;4.50;;;8.50;99.90;8.60;96896.00;;;;5031313;28;20217;-90
2022/12/29 10:49:49;;;;;;;4.47;4.07;;;8.90;99.90;8.50;96897.00;;;;5041221;28;20189;-89
2022/12/29 10:52:40;;;;;;;9.43;5.93;;;9.20;99.90;8.60;96881.00;;;;5039314;28;20225;-89
2022/12/29 10:55:36;;;;;;;6.90;4.27;;;9.30;99.90;8.70;96883.00;;;;5027084;28;20224;-91
2022/12/29 10:58:35;;;;;;;4.60;3.20;;;9.50;99.90;9.30;96879.00;;;;5032263;28;20692;-91
2022/12/29 11:01:30;;;;;;;4.40;3.43;;;9.70;99.90;9.00;96872.00;;;;5023667;28;20201;-89
2022/12/29 11:04:38;;;;;;;5.07;4.10;;;9.70;99.90;9.10;96881.00;;;;5029955;28;20559;-89
2022/12/29 11:07:30;;;;;;;5.33;3.60;;;9.80;99.90;9.60;96879.00;;;;5028646;28;20244;-89
2022/12/29 11:10:30;;;;;;;4.80;3.50;;;10.00;98.90;10.40;96887.00;;;;5031808;28;20201;-89
2022/12/29 11:13:29;;;;;;;3.47;3.17;;;10.60;97.90;11.60;96884.00;;;;5032546;28;20239;-89
2022/12/29 11:16:31;;;;;;;5.60;3.53;;;11.30;96.70;11.10;96880.00;;;;5034951;28;20213;-86
2022/12/29 11:19:26;;;;;;;8.53;4.10;;;11.80;93.80;12.50;96882.00;;;;5031727;28;20200;-88
2022/12/29 11:22:25;;;;;;;4.17;3.03;;;12.30;93.00;13.20;96878.00;;;;5013684;28;20669;-88
2022/12/29 11:25:14;;;;;;;4.77;3.27;;;12.90;92.20;13.50;96880.00;;;;5016949;28;20237;-87
2022/12/29 11:28:16;;;;;;;6.17;4.90;;;13.50;90.30;13.60;96878.00;;;;5021342;28;20205;-88
2022/12/29 11:31:09;;;;;;;6.37;3.37;;;13.70;88.30;14.50;96879.00;;;;5032223;28;20207;-88
2022/12/29 11:33:58;;;;;;;5.63;3.47;;;14.10;87.30;14.20;96868.00;;;;5031612;28;20221;-88
2022/12/29 11:36:48;;;;;;;4.33;3.17;;;14.60;82.10;12.70;96861.00;;;;5038185;28;20218;-89
2022/12/29 11:39:49;;;;;;;4.37;3.43;;;14.00;78.80;13.00;96872.00;;;;5027151;28;20197;-89
2022/12/29 11:42:42;;;;;;;4.80;3.70;;;13.70;78.90;13.90;96867.00;;;;5035847;28;20205;-91
2022/12/29 11:45:35;;;;;;;4.60;3.17;;;13.60;81.80;13.70;96869.00;;;;5043310;28;20232;-89
2022/12/29 11:48:39;;;;;;;4.93;3.27;;;13.60;79.40;13.20;96858.00;;;;5030537;28;20208;-88
2022/12/29 11:51:35;;;;;;;5.57;3.37;;;13.50;79.40;13.50;96863.00;;;;5037528;28;20201;-88
2022/12/29 11:54:30;;;;;;;3.87;2.73;;;13.80;78.60;13.30;96859.00;;;;5038928;28;20609;-89
2022/12/29 11:57:20;;;;;;;5.40;3.73;;;13.80;79.00;13.50;96859.00;;;;5034155;28;20228;-89
2022/12/29 12:00:19;;;;;;;4.67;3.60;;;13.70;77.70;13.50;96860.00;;;;5030031;28;20217;-92
2022/12/29 12:03:17;;;;;;;4.93;3.87;;;13.60;78.40;13.10;96851.00;;;;5015216;28;20251;-91
2022/12/29 12:06:16;;;;;;;6.53;4.73;;;13.60;78.20;13.90;96852.00;;;;5028923;28;20229;-91
2022/12/29 12:09:15;;;;;;;8.20;4.00;;;13.50;77.20;13.50;96855.00;;;;5035671;28;20198;-91
2022/12/29 12:12:10;;;;;;;6.43;3.17;;;13.60;77.90;13.60;96852.00;;;;5037203;28;20198;-92
2022/12/29 12:15:03;;;;;;;4.97;3.40;;;13.40;77.60;14.50;96852.00;;;;5034111;28;20197;-91
2022/12/29 12:18:07;;;;;;;5.00;3.10;;;13.70;78.20;15.20;96852.00;;;;5034871;28;20206;-92
2022/12/29 12:21:34;;;;;;;3.77;2.73;;;13.90;78.70;14.80;96843.00;;;;5038063;28;20205;-91
2022/12/29 12:24:54;;;;;;;7.50;5.13;;;12.90;73.50;15.40;96840.00;;;;5022307;28;20214;-91
2022/12/29 12:27:53;;;;;;;5.47;3.23;;;15.10;77.10;16.20;96829.00;;;;5016961;28;20202;-91
2022/12/29 12:30:51;;;;;;;3.90;3.50;;;14.00;75.00;15.80;96835.00;;;;5035399;28;20194;-91
2022/12/29 12:33:46;;;;;;;5.27;3.43;;;14.60;73.20;16.10;96835.00;;;;5039027;28;20217;-90
2022/12/29 12:37:03;;;;;;;6.53;4.37;;;14.80;73.20;16.00;96828.00;;;;5037806;28;20216;-91
2022/12/29 12:40:39;;;;;;;9.27;3.13;;;15.00;71.70;15.80;96829.00;;;;5040379;28;20197;-90
2022/12/29 12:43:45;;;;;;;5.67;3.10;;;14.90;72.00;17.00;96828.00;;;;5034877;28;20211;-90
2022/12/29 12:47:19;;;;;;;4.07;2.40;;;15.10;73.40;16.80;96833.00;;;;5027023;28;20244;-90
2022/12/29 12:50:33;;;;;;;5.53;2.70;;;15.40;69.70;17.20;96829.00;;;;5028220;28;20194;-90
2022/12/29 12:53:50;;;;;;;4.70;3.03;;;15.50;69.40;18.00;96830.00;;;;5042402;28;20682;-91
2022/12/29 12:57:00;;;;;;;4.90;2.87;;;16.20;68.90;16.50;96823.00;;;;5047634;28;20216;-91
2022/12/29 13:00:00;;;;;;;10.50;6.20;;;16.90;65.80;15.20;96816.00;;;;5043598;28;20208;-91
2022/12/29 13:03:06;;;;;;;4.07;3.13;;;16.30;67.30;14.20;96816.00;;;;5027586;28;20197;-90
2022/12/29 13:06:20;;;;;;;8.27;4.33;;;17.40;69.40;14.00;96813.00;;;;5041677;28;20244;-91
2022/12/29 13:09:45;;;;;;;6.23;4.93;;;14.50;70.90;13.20;96814.00;;;;5032176;28;20197;-89
2022/12/29 13:12:44;;;;;;;4.77;4.03;;;14.10;74.20;13.60;96812.00;;;;5023552;28;20203;-89
2022/12/29 13:15:50;;;;;;;8.17;3.87;;;13.50;75.50;14.00;96815.00;;;;5042731;28;20225;-90
2022/12/29 13:18:54;;;;;;;3.90;2.80;;;13.60;75.90;12.70;96803.00;;;;5042561;28;20199;-87
2022/12/29 13:22:03;;;;;;;6.47;3.50;;;13.50;75.50;14.70;96814.00;;;;5042812;28;20193;-89
2022/12/29 13:25:22;;;;;;;6.27;4.93;;;13.50;76.90;14.00;96810.00;;;;5043205;28;20199;-89
2022/12/29 13:32:32;;;;;;;2.40;2.20;;;13.00;78.50;11.10;96791.00;;;;4996517;28;20213;-87
2022/12/29 13:35:40;;;;;;;3.07;2.33;;;11.70;80.20;10.30;96796.00;;;;5034145;28;20221;-87